Accueil
METAR-TAF:

METAR-TAF

Aéroports :

Aéroport international de Tunis-Carthage

Tunis, Tunisie

latitude: 36-50N, longitude: 010-14E, altitude: 3 m

Observation

Le bulletin a été fait il y a 16 minutes, à 04:00 UTC
Vent 8 kt de sud
Température 21°C
Humidité 64%
Pression 1015 hPa
Visibilité 10 km ou plus
Quelques nuages à une hauteur de 3300 ft

METAR: DTTA 230400Z 18008KT 9999 FEW033 21/14 Q1015 NOSIG

Heure: 05:16 (04:16 UTC)

Prévision

Le bulletin a été fait il y a 5 heures et 16 minutes, à 23:00 UTC
Prévision valable du 23 à 00 UTC au 23 à 24 UTC
Vent 4 kt de ouest/sud-ouest
Visibilité 10 km ou plus
Quelques nuages à une hauteur de 3300 ft
Evoluant progressivement
du 23 à 13 UTC au 23 à 15 UTC
Vent 14 kt de nord-ouest

TAF: DTTA 222300Z 2300/2324 25004KT 9999 FEW033 BECMG 2313/2315 31014KT

Observations et prévisions météorologiques de plus de 4000 aéroports (messages METAR et TAF).

Les stations disponibles sont représentées par des disques jaunes et rouges sur la carte.

Passer la souris dessus pour voir le nom de la station.

Cliquer dessus pour voir les observations et prévisions météorologiques.

Pour changer de carte: cliquez sur les boutons verts avec une croix noire pour zoomer, sur le bouton vert avec un tiret pour effectuer un zoom arrière, ou sur les flèches vertes pour les cartes adjacentes.


METAR-TAF: